Pagina principale
METAR-TAF:

METAR-TAF

Aeroporti :

Aeroporto Internazionale del Kuwait

Madinat al-Kuwait, Kuwait

latitudine: 29-13N, longitudine: 047-59E, altezza: 55 m

Osservazione

Il bollettino è stato emesso 25 minuti fa, alle 23:00 UTC
Vento 10 kt da sud
Temperature 31°C
Umidità 22%
Pressione 1002 hPa
Visibilità: 8000 m

METAR: OKBK 242300Z 17010KT 8000 NSC 31/07 Q1002 NOSIG

Ora: 02:25 (23:25 UTC)

Previsione

Il bollettino è stato emesso 6 ore e 40 minuti fa, alle 16:45 UTC
Previsione valida dal 24 alle 18 UTC al 25 alle 24 UTC
Vento 8 kt da sud con raffiche fino a 20 kt
Visibilità: 7000 m
Temporaneamente
dal 24 alle 18 UTC al 24 alle 24 UTC
Visibilità: 3000 m
Scaccia polvere alto

TAF: OKBK 241645Z 2418/2524 18008G20KT 7000 NSC TEMPO 2418/2424 3000 BLDU

Osservazioni e previsioni meteorologiche di più di 4000 aeroporti (messaggi METAR e TAF).

Le stazioni disponibili sono rappresentate dai dischi gialli e rossi sulla carta.

Puntare il mouse per vedere il nome della stazione.

Clicca sopra per visualizzare le osservazioni e previsioni meteorologiche.

Per cambiare la mappa : fare clic sui pulsanti verdi con una croce nera per ingrandire, il pulsante verde con un trattino per diminuire, o sulla freccia verde per le mappe adiacenti.


METAR-TAF: